sensor_id;sensor_type;location;lat;lon;timestamp;P1;durP1;ratioP1;P2;durP2;ratioP2
76373;SDS011;65197;50.164;8.012;2023-05-15T00:02:25;3.83;;;3.22;;
76373;SDS011;65197;50.164;8.012;2023-05-15T00:04:51;3.80;;;3.00;;
76373;SDS011;65197;50.164;8.012;2023-05-15T00:07:17;4.60;;;3.35;;
76373;SDS011;65197;50.164;8.012;2023-05-15T00:09:42;3.60;;;3.10;;
76373;SDS011;65197;50.164;8.012;2023-05-15T00:12:08;3.78;;;2.90;;
76373;SDS011;65197;50.164;8.012;2023-05-15T00:14:33;3.53;;;3.03;;
76373;SDS011;65197;50.164;8.012;2023-05-15T00:16:58;3.90;;;3.22;;
76373;SDS011;65197;50.164;8.012;2023-05-15T00:19:24;3.85;;;3.20;;
76373;SDS011;65197;50.164;8.012;2023-05-15T00:21:49;5.47;;;3.00;;
76373;SDS011;65197;50.164;8.012;2023-05-15T00:24:15;3.85;;;3.20;;
76373;SDS011;65197;50.164;8.012;2023-05-15T00:26:40;4.82;;;3.28;;
76373;SDS011;65197;50.164;8.012;2023-05-15T00:29:05;4.30;;;3.55;;
76373;SDS011;65197;50.164;8.012;2023-05-15T00:31:31;4.47;;;3.13;;
76373;SDS011;65197;50.164;8.012;2023-05-15T00:33:57;3.72;;;3.03;;
76373;SDS011;65197;50.164;8.012;2023-05-15T00:36:24;4.55;;;3.30;;
76373;SDS011;65197;50.164;8.012;2023-05-15T00:38:50;5.03;;;3.10;;
76373;SDS011;65197;50.164;8.012;2023-05-15T00:41:15;3.75;;;3.10;;
76373;SDS011;65197;50.164;8.012;2023-05-15T00:43:42;3.97;;;3.35;;
76373;SDS011;65197;50.164;8.012;2023-05-15T00:46:08;5.00;;;3.30;;
76373;SDS011;65197;50.164;8.012;2023-05-15T00:48:36;3.40;;;2.90;;
76373;SDS011;65197;50.164;8.012;2023-05-15T00:51:02;4.00;;;3.25;;
76373;SDS011;65197;50.164;8.012;2023-05-15T00:53:28;4.93;;;3.42;;
76373;SDS011;65197;50.164;8.012;2023-05-15T00:55:55;3.72;;;3.10;;
76373;SDS011;65197;50.164;8.012;2023-05-15T00:58:22;4.60;;;3.58;;
76373;SDS011;65197;50.164;8.012;2023-05-15T01:00:49;6.55;;;3.50;;
76373;SDS011;65197;50.164;8.012;2023-05-15T01:03:15;5.03;;;3.70;;
76373;SDS011;65197;50.164;8.012;2023-05-15T01:05:41;4.72;;;3.25;;
76373;SDS011;65197;50.164;8.012;2023-05-15T01:08:26;6.00;;;3.88;;
76373;SDS011;65197;50.164;8.012;2023-05-15T01:10:58;4.05;;;3.33;;
76373;SDS011;65197;50.164;8.012;2023-05-15T01:13:26;4.05;;;3.60;;
76373;SDS011;65197;50.164;8.012;2023-05-15T01:15:53;4.40;;;3.25;;
76373;SDS011;65197;50.164;8.012;2023-05-15T01:18:18;4.72;;;3.30;;
76373;SDS011;65197;50.164;8.012;2023-05-15T01:26:34;5.18;;;3.80;;
76373;SDS011;65197;50.164;8.012;2023-05-15T01:40:50;4.97;;;3.47;;
76373;SDS011;65197;50.164;8.012;2023-05-15T01:43:24;4.75;;;4.00;;
76373;SDS011;65197;50.164;8.012;2023-05-15T01:45:53;5.32;;;3.50;;
76373;SDS011;65197;50.164;8.012;2023-05-15T01:48:20;5.57;;;3.88;;
76373;SDS011;65197;50.164;8.012;2023-05-15T01:50:46;4.40;;;3.30;;
76373;SDS011;65197;50.164;8.012;2023-05-15T01:53:15;5.47;;;3.72;;
76373;SDS011;65197;50.164;8.012;2023-05-15T01:55:42;5.18;;;3.55;;
76373;SDS011;65197;50.164;8.012;2023-05-15T01:58:09;6.10;;;3.75;;
76373;SDS011;65197;50.164;8.012;2023-05-15T02:00:35;4.85;;;3.63;;
76373;SDS011;65197;50.164;8.012;2023-05-15T02:03:03;4.47;;;3.47;;
76373;SDS011;65197;50.164;8.012;2023-05-15T02:05:30;5.07;;;3.50;;
76373;SDS011;65197;50.164;8.012;2023-05-15T02:07:59;4.82;;;3.70;;
76373;SDS011;65197;50.164;8.012;2023-05-15T02:10:26;6.15;;;3.45;;
76373;SDS011;65197;50.164;8.012;2023-05-15T02:12:52;5.82;;;3.70;;
76373;SDS011;65197;50.164;8.012;2023-05-15T02:15:19;5.40;;;3.47;;
76373;SDS011;65197;50.164;8.012;2023-05-15T02:17:45;6.15;;;3.30;;
76373;SDS011;65197;50.164;8.012;2023-05-15T02:20:11;4.72;;;3.95;;
76373;SDS011;65197;50.164;8.012;2023-05-15T02:22:36;5.25;;;3.60;;
76373;SDS011;65197;50.164;8.012;2023-05-15T02:25:02;4.30;;;3.70;;
76373;SDS011;65197;50.164;8.012;2023-05-15T02:27:28;4.63;;;3.60;;
76373;SDS011;65197;50.164;8.012;2023-05-15T02:35:31;4.55;;;3.35;;
76373;SDS011;65197;50.164;8.012;2023-05-15T02:37:58;7.05;;;3.40;;
76373;SDS011;65197;50.164;8.012;2023-05-15T02:40:26;6.03;;;3.58;;
76373;SDS011;65197;50.164;8.012;2023-05-15T02:42:53;4.32;;;3.45;;
76373;SDS011;65197;50.164;8.012;2023-05-15T02:45:19;4.38;;;3.58;;
76373;SDS011;65197;50.164;8.012;2023-05-15T02:47:47;5.18;;;3.72;;
76373;SDS011;65197;50.164;8.012;2023-05-15T02:50:15;5.05;;;4.15;;
76373;SDS011;65197;50.164;8.012;2023-05-15T02:52:41;5.10;;;3.90;;
76373;SDS011;65197;50.164;8.012;2023-05-15T02:55:06;5.63;;;4.43;;
76373;SDS011;65197;50.164;8.012;2023-05-15T02:57:32;5.60;;;3.55;;
76373;SDS011;65197;50.164;8.012;2023-05-15T02:59:58;5.07;;;3.75;;
76373;SDS011;65197;50.164;8.012;2023-05-15T03:02:24;4.38;;;3.55;;
76373;SDS011;65197;50.164;8.012;2023-05-15T03:04:50;4.85;;;3.42;;
76373;SDS011;65197;50.164;8.012;2023-05-15T03:07:15;4.25;;;3.35;;
76373;SDS011;65197;50.164;8.012;2023-05-15T03:09:40;4.78;;;3.42;;
76373;SDS011;65197;50.164;8.012;2023-05-15T03:12:06;5.70;;;3.20;;
76373;SDS011;65197;50.164;8.012;2023-05-15T03:14:32;4.53;;;3.20;;
76373;SDS011;65197;50.164;8.012;2023-05-15T03:16:57;5.13;;;3.50;;
76373;SDS011;65197;50.164;8.012;2023-05-15T03:19:23;4.22;;;3.60;;
76373;SDS011;65197;50.164;8.012;2023-05-15T03:21:48;4.18;;;3.42;;
76373;SDS011;65197;50.164;8.012;2023-05-15T03:24:13;5.25;;;3.30;;
76373;SDS011;65197;50.164;8.012;2023-05-15T03:26:39;3.70;;;3.20;;
76373;SDS011;65197;50.164;8.012;2023-05-15T03:29:06;4.45;;;3.30;;
76373;SDS011;65197;50.164;8.012;2023-05-15T03:31:31;5.32;;;3.83;;
76373;SDS011;65197;50.164;8.012;2023-05-15T03:33:57;5.47;;;4.25;;
76373;SDS011;65197;50.164;8.012;2023-05-15T03:36:22;5.70;;;4.68;;
76373;SDS011;65197;50.164;8.012;2023-05-15T03:38:48;9.38;;;6.18;;
76373;SDS011;65197;50.164;8.012;2023-05-15T03:41:13;7.13;;;5.20;;
76373;SDS011;65197;50.164;8.012;2023-05-15T03:43:38;7.15;;;5.07;;
76373;SDS011;65197;50.164;8.012;2023-05-15T03:46:04;9.98;;;6.10;;
76373;SDS011;65197;50.164;8.012;2023-05-15T03:48:29;8.98;;;6.13;;
76373;SDS011;65197;50.164;8.012;2023-05-15T03:50:55;10.02;;;5.50;;
76373;SDS011;65197;50.164;8.012;2023-05-15T03:53:20;8.32;;;5.50;;
76373;SDS011;65197;50.164;8.012;2023-05-15T03:55:46;9.13;;;5.72;;
76373;SDS011;65197;50.164;8.012;2023-05-15T03:58:11;8.15;;;6.38;;
76373;SDS011;65197;50.164;8.012;2023-05-15T04:00:36;9.30;;;5.82;;
76373;SDS011;65197;50.164;8.012;2023-05-15T04:03:02;7.97;;;6.28;;
76373;SDS011;65197;50.164;8.012;2023-05-15T04:05:27;8.65;;;6.18;;
76373;SDS011;65197;50.164;8.012;2023-05-15T04:07:53;8.20;;;6.05;;
76373;SDS011;65197;50.164;8.012;2023-05-15T04:10:18;9.93;;;7.03;;
76373;SDS011;65197;50.164;8.012;2023-05-15T04:12:44;11.68;;;8.00;;
76373;SDS011;65197;50.164;8.012;2023-05-15T04:17:37;12.40;;;8.77;;
76373;SDS011;65197;50.164;8.012;2023-05-15T04:20:03;11.20;;;7.50;;
76373;SDS011;65197;50.164;8.012;2023-05-15T04:22:30;10.15;;;7.53;;
76373;SDS011;65197;50.164;8.012;2023-05-15T04:24:55;12.38;;;8.25;;
76373;SDS011;65197;50.164;8.012;2023-05-15T04:27:20;13.60;;;7.90;;
76373;SDS011;65197;50.164;8.012;2023-05-15T04:29:46;15.48;;;8.98;;
76373;SDS011;65197;50.164;8.012;2023-05-15T04:32:12;16.42;;;10.20;;
76373;SDS011;65197;50.164;8.012;2023-05-15T04:34:37;15.13;;;10.07;;
76373;SDS011;65197;50.164;8.012;2023-05-15T04:37:02;14.40;;;9.32;;
76373;SDS011;65197;50.164;8.012;2023-05-15T04:39:28;18.65;;;10.18;;
76373;SDS011;65197;50.164;8.012;2023-05-15T04:41:54;18.35;;;12.07;;
76373;SDS011;65197;50.164;8.012;2023-05-15T04:44:20;17.95;;;10.98;;
76373;SDS011;65197;50.164;8.012;2023-05-15T04:46:45;22.02;;;12.10;;
76373;SDS011;65197;50.164;8.012;2023-05-15T04:49:10;19.27;;;12.18;;
76373;SDS011;65197;50.164;8.012;2023-05-15T04:51:36;17.30;;;11.75;;
76373;SDS011;65197;50.164;8.012;2023-05-15T04:54:01;21.00;;;12.60;;
76373;SDS011;65197;50.164;8.012;2023-05-15T04:56:27;19.63;;;11.77;;
76373;SDS011;65197;50.164;8.012;2023-05-15T04:58:52;19.10;;;12.32;;
76373;SDS011;65197;50.164;8.012;2023-05-15T05:01:18;20.08;;;12.40;;
76373;SDS011;65197;50.164;8.012;2023-05-15T05:03:43;23.13;;;15.57;;
76373;SDS011;65197;50.164;8.012;2023-05-15T05:06:09;26.42;;;14.75;;
76373;SDS011;65197;50.164;8.012;2023-05-15T05:08:34;25.48;;;15.65;;
76373;SDS011;65197;50.164;8.012;2023-05-15T05:10:59;27.17;;;16.08;;
76373;SDS011;65197;50.164;8.012;2023-05-15T05:13:25;30.23;;;16.23;;
76373;SDS011;65197;50.164;8.012;2023-05-15T05:15:50;28.33;;;16.00;;
76373;SDS011;65197;50.164;8.012;2023-05-15T05:18:16;27.40;;;15.93;;
76373;SDS011;65197;50.164;8.012;2023-05-15T05:20:41;30.80;;;17.38;;
76373;SDS011;65197;50.164;8.012;2023-05-15T05:23:06;36.63;;;19.20;;
76373;SDS011;65197;50.164;8.012;2023-05-15T05:25:32;37.67;;;18.63;;
76373;SDS011;65197;50.164;8.012;2023-05-15T05:27:57;33.75;;;18.00;;
76373;SDS011;65197;50.164;8.012;2023-05-15T05:30:23;37.45;;;19.25;;
76373;SDS011;65197;50.164;8.012;2023-05-15T05:32:48;38.97;;;19.42;;
76373;SDS011;65197;50.164;8.012;2023-05-15T05:35:13;38.25;;;20.20;;
76373;SDS011;65197;50.164;8.012;2023-05-15T05:37:39;36.53;;;19.55;;
76373;SDS011;65197;50.164;8.012;2023-05-15T05:40:05;39.08;;;19.80;;
76373;SDS011;65197;50.164;8.012;2023-05-15T05:42:32;39.97;;;21.13;;
76373;SDS011;65197;50.164;8.012;2023-05-15T05:44:58;43.53;;;21.20;;
76373;SDS011;65197;50.164;8.012;2023-05-15T05:47:23;41.08;;;20.00;;
76373;SDS011;65197;50.164;8.012;2023-05-15T05:49:48;42.15;;;23.00;;
76373;SDS011;65197;50.164;8.012;2023-05-15T05:52:14;42.88;;;21.73;;
76373;SDS011;65197;50.164;8.012;2023-05-15T05:54:42;39.80;;;21.67;;
76373;SDS011;65197;50.164;8.012;2023-05-15T05:57:10;40.75;;;21.75;;
76373;SDS011;65197;50.164;8.012;2023-05-15T05:59:35;42.47;;;22.45;;
76373;SDS011;65197;50.164;8.012;2023-05-15T06:02:01;44.90;;;22.35;;
76373;SDS011;65197;50.164;8.012;2023-05-15T06:04:27;47.00;;;23.55;;
76373;SDS011;65197;50.164;8.012;2023-05-15T06:06:53;42.65;;;22.10;;
76373;SDS011;65197;50.164;8.012;2023-05-15T06:09:18;45.95;;;24.23;;
76373;SDS011;65197;50.164;8.012;2023-05-15T06:11:44;49.25;;;23.45;;
76373;SDS011;65197;50.164;8.012;2023-05-15T06:14:09;42.20;;;20.83;;
76373;SDS011;65197;50.164;8.012;2023-05-15T06:16:35;41.72;;;21.60;;
76373;SDS011;65197;50.164;8.012;2023-05-15T06:19:00;39.97;;;21.20;;
76373;SDS011;65197;50.164;8.012;2023-05-15T06:21:25;38.85;;;20.83;;
76373;SDS011;65197;50.164;8.012;2023-05-15T06:23:51;38.38;;;19.35;;
76373;SDS011;65197;50.164;8.012;2023-05-15T06:26:16;38.53;;;19.25;;
76373;SDS011;65197;50.164;8.012;2023-05-15T06:28:42;38.08;;;19.67;;
76373;SDS011;65197;50.164;8.012;2023-05-15T06:31:07;39.85;;;20.70;;
76373;SDS011;65197;50.164;8.012;2023-05-15T06:33:32;37.55;;;20.02;;
76373;SDS011;65197;50.164;8.012;2023-05-15T06:35:58;36.78;;;20.48;;
76373;SDS011;65197;50.164;8.012;2023-05-15T06:38:23;39.38;;;21.58;;
76373;SDS011;65197;50.164;8.012;2023-05-15T06:40:49;35.92;;;19.50;;
76373;SDS011;65197;50.164;8.012;2023-05-15T06:43:14;39.38;;;21.20;;
76373;SDS011;65197;50.164;8.012;2023-05-15T06:45:40;36.03;;;21.17;;
76373;SDS011;65197;50.164;8.012;2023-05-15T06:48:05;40.65;;;20.67;;
76373;SDS011;65197;50.164;8.012;2023-05-15T06:50:31;34.58;;;19.83;;
76373;SDS011;65197;50.164;8.012;2023-05-15T06:52:56;32.55;;;19.17;;
76373;SDS011;65197;50.164;8.012;2023-05-15T06:55:22;33.45;;;19.33;;
76373;SDS011;65197;50.164;8.012;2023-05-15T06:57:47;36.58;;;21.55;;
76373;SDS011;65197;50.164;8.012;2023-05-15T07:00:13;31.83;;;17.75;;
76373;SDS011;65197;50.164;8.012;2023-05-15T07:02:38;32.53;;;18.95;;
76373;SDS011;65197;50.164;8.012;2023-05-15T07:05:04;30.13;;;18.05;;
76373;SDS011;65197;50.164;8.012;2023-05-15T07:07:30;32.83;;;17.95;;
76373;SDS011;65197;50.164;8.012;2023-05-15T07:09:56;36.00;;;18.58;;
76373;SDS011;65197;50.164;8.012;2023-05-15T07:12:21;34.45;;;19.50;;
76373;SDS011;65197;50.164;8.012;2023-05-15T07:14:47;32.90;;;19.95;;
76373;SDS011;65197;50.164;8.012;2023-05-15T07:17:12;37.97;;;21.83;;
76373;SDS011;65197;50.164;8.012;2023-05-15T07:19:38;40.22;;;21.05;;
76373;SDS011;65197;50.164;8.012;2023-05-15T07:22:03;33.20;;;20.02;;
76373;SDS011;65197;50.164;8.012;2023-05-15T07:24:28;34.42;;;19.40;;
76373;SDS011;65197;50.164;8.012;2023-05-15T07:26:54;30.30;;;17.92;;
76373;SDS011;65197;50.164;8.012;2023-05-15T07:29:21;31.65;;;18.55;;
76373;SDS011;65197;50.164;8.012;2023-05-15T07:31:46;33.70;;;17.85;;
76373;SDS011;65197;50.164;8.012;2023-05-15T07:34:12;29.05;;;16.58;;
76373;SDS011;65197;50.164;8.012;2023-05-15T07:36:37;33.78;;;19.30;;
76373;SDS011;65197;50.164;8.012;2023-05-15T07:39:03;32.45;;;18.63;;
76373;SDS011;65197;50.164;8.012;2023-05-15T07:41:28;29.80;;;17.10;;
76373;SDS011;65197;50.164;8.012;2023-05-15T07:43:57;28.80;;;17.23;;
76373;SDS011;65197;50.164;8.012;2023-05-15T07:46:22;31.88;;;18.23;;
76373;SDS011;65197;50.164;8.012;2023-05-15T07:48:47;31.98;;;18.05;;
76373;SDS011;65197;50.164;8.012;2023-05-15T07:51:13;31.20;;;17.02;;
76373;SDS011;65197;50.164;8.012;2023-05-15T07:53:38;29.38;;;17.20;;
76373;SDS011;65197;50.164;8.012;2023-05-15T07:56:04;27.63;;;16.83;;
76373;SDS011;65197;50.164;8.012;2023-05-15T07:58:29;27.30;;;17.00;;
76373;SDS011;65197;50.164;8.012;2023-05-15T08:00:55;29.83;;;17.48;;
76373;SDS011;65197;50.164;8.012;2023-05-15T08:03:20;32.50;;;17.35;;
76373;SDS011;65197;50.164;8.012;2023-05-15T08:05:45;30.58;;;18.02;;
76373;SDS011;65197;50.164;8.012;2023-05-15T08:08:11;31.13;;;17.30;;
76373;SDS011;65197;50.164;8.012;2023-05-15T08:10:36;30.20;;;17.33;;
76373;SDS011;65197;50.164;8.012;2023-05-15T08:13:02;27.55;;;16.70;;
76373;SDS011;65197;50.164;8.012;2023-05-15T08:15:27;27.90;;;17.50;;
76373;SDS011;65197;50.164;8.012;2023-05-15T08:17:53;27.08;;;17.33;;
76373;SDS011;65197;50.164;8.012;2023-05-15T08:20:18;26.85;;;16.02;;
76373;SDS011;65197;50.164;8.012;2023-05-15T08:22:44;30.08;;;16.30;;
76373;SDS011;65197;50.164;8.012;2023-05-15T08:25:09;26.08;;;15.18;;
76373;SDS011;65197;50.164;8.012;2023-05-15T08:27:35;29.17;;;17.13;;
76373;SDS011;65197;50.164;8.012;2023-05-15T08:30:00;29.17;;;16.48;;
76373;SDS011;65197;50.164;8.012;2023-05-15T08:32:26;29.55;;;17.20;;
76373;SDS011;65197;50.164;8.012;2023-05-15T08:34:52;34.15;;;18.42;;
76373;SDS011;65197;50.164;8.012;2023-05-15T08:37:17;27.33;;;16.52;;
76373;SDS011;65197;50.164;8.012;2023-05-15T08:39:43;31.90;;;17.10;;
76373;SDS011;65197;50.164;8.012;2023-05-15T08:42:23;31.48;;;18.23;;
76373;SDS011;65197;50.164;8.012;2023-05-15T08:44:52;27.80;;;16.73;;
76373;SDS011;65197;50.164;8.012;2023-05-15T08:47:19;36.63;;;18.17;;
76373;SDS011;65197;50.164;8.012;2023-05-15T08:52:28;28.60;;;16.67;;
76373;SDS011;65197;50.164;8.012;2023-05-15T08:54:54;31.38;;;18.80;;
76373;SDS011;65197;50.164;8.012;2023-05-15T08:57:20;27.48;;;17.15;;
76373;SDS011;65197;50.164;8.012;2023-05-15T08:59:46;32.97;;;18.55;;
76373;SDS011;65197;50.164;8.012;2023-05-15T09:02:13;27.05;;;16.35;;
76373;SDS011;65197;50.164;8.012;2023-05-15T09:04:39;28.10;;;16.85;;
76373;SDS011;65197;50.164;8.012;2023-05-15T09:07:05;30.70;;;17.48;;
76373;SDS011;65197;50.164;8.012;2023-05-15T09:09:32;28.95;;;17.15;;
76373;SDS011;65197;50.164;8.012;2023-05-15T09:11:58;26.88;;;16.10;;
76373;SDS011;65197;50.164;8.012;2023-05-15T09:14:26;25.48;;;16.05;;
76373;SDS011;65197;50.164;8.012;2023-05-15T09:16:51;28.52;;;15.85;;
76373;SDS011;65197;50.164;8.012;2023-05-15T09:19:18;26.35;;;15.18;;
76373;SDS011;65197;50.164;8.012;2023-05-15T09:21:45;25.27;;;15.70;;
76373;SDS011;65197;50.164;8.012;2023-05-15T09:26:43;24.02;;;14.68;;
76373;SDS011;65197;50.164;8.012;2023-05-15T09:29:10;29.42;;;16.33;;
76373;SDS011;65197;50.164;8.012;2023-05-15T09:31:39;29.38;;;17.05;;
76373;SDS011;65197;50.164;8.012;2023-05-15T09:34:05;28.33;;;18.05;;
76373;SDS011;65197;50.164;8.012;2023-05-15T09:36:30;28.02;;;16.80;;
76373;SDS011;65197;50.164;8.012;2023-05-15T09:38:59;30.25;;;17.33;;
76373;SDS011;65197;50.164;8.012;2023-05-15T09:41:26;32.50;;;17.40;;
76373;SDS011;65197;50.164;8.012;2023-05-15T09:43:52;29.42;;;17.38;;
76373;SDS011;65197;50.164;8.012;2023-05-15T09:46:20;28.08;;;17.70;;
76373;SDS011;65197;50.164;8.012;2023-05-15T09:48:46;28.20;;;17.77;;
76373;SDS011;65197;50.164;8.012;2023-05-15T09:51:15;28.58;;;18.13;;
76373;SDS011;65197;50.164;8.012;2023-05-15T09:53:42;32.60;;;18.35;;
76373;SDS011;65197;50.164;8.012;2023-05-15T09:56:13;28.00;;;16.65;;
76373;SDS011;65197;50.164;8.012;2023-05-15T09:58:50;29.65;;;18.33;;
76373;SDS011;65197;50.164;8.012;2023-05-15T10:01:21;27.55;;;16.95;;
76373;SDS011;65197;50.164;8.012;2023-05-15T10:03:55;28.13;;;16.90;;
76373;SDS011;65197;50.164;8.012;2023-05-15T10:06:24;26.50;;;16.33;;
76373;SDS011;65197;50.164;8.012;2023-05-15T10:08:53;26.25;;;17.58;;
76373;SDS011;65197;50.164;8.012;2023-05-15T10:11:19;23.60;;;16.00;;
76373;SDS011;65197;50.164;8.012;2023-05-15T10:13:48;25.45;;;16.65;;
76373;SDS011;65197;50.164;8.012;2023-05-15T10:16:14;24.80;;;16.52;;
76373;SDS011;65197;50.164;8.012;2023-05-15T10:18:40;29.25;;;18.30;;
76373;SDS011;65197;50.164;8.012;2023-05-15T10:21:08;28.52;;;18.35;;
76373;SDS011;65197;50.164;8.012;2023-05-15T10:23:37;26.70;;;16.60;;
76373;SDS011;65197;50.164;8.012;2023-05-15T10:26:25;27.60;;;16.48;;
76373;SDS011;65197;50.164;8.012;2023-05-15T10:28:58;25.25;;;16.45;;
76373;SDS011;65197;50.164;8.012;2023-05-15T10:31:25;23.25;;;16.63;;
76373;SDS011;65197;50.164;8.012;2023-05-15T10:33:50;25.17;;;16.52;;
76373;SDS011;65197;50.164;8.012;2023-05-15T10:36:18;26.65;;;18.10;;
76373;SDS011;65197;50.164;8.012;2023-05-15T10:38:43;24.50;;;16.77;;
76373;SDS011;65197;50.164;8.012;2023-05-15T10:41:10;27.60;;;17.30;;
76373;SDS011;65197;50.164;8.012;2023-05-15T10:43:37;26.38;;;16.80;;
76373;SDS011;65197;50.164;8.012;2023-05-15T10:46:05;23.27;;;15.93;;
76373;SDS011;65197;50.164;8.012;2023-05-15T10:48:31;25.65;;;17.35;;
76373;SDS011;65197;50.164;8.012;2023-05-15T10:50:58;25.27;;;16.75;;
76373;SDS011;65197;50.164;8.012;2023-05-15T10:53:24;24.95;;;18.48;;
76373;SDS011;65197;50.164;8.012;2023-05-15T10:55:50;26.05;;;15.82;;
76373;SDS011;65197;50.164;8.012;2023-05-15T10:58:15;23.95;;;15.88;;
76373;SDS011;65197;50.164;8.012;2023-05-15T11:00:42;24.00;;;16.75;;
76373;SDS011;65197;50.164;8.012;2023-05-15T11:03:12;23.45;;;15.85;;
76373;SDS011;65197;50.164;8.012;2023-05-15T11:08:37;24.65;;;16.48;;
76373;SDS011;65197;50.164;8.012;2023-05-15T11:11:04;20.35;;;15.30;;
76373;SDS011;65197;50.164;8.012;2023-05-15T11:19:33;19.75;;;14.15;;
76373;SDS011;65197;50.164;8.012;2023-05-15T11:22:16;20.63;;;14.60;;
76373;SDS011;65197;50.164;8.012;2023-05-15T11:35:26;22.13;;;17.08;;
76373;SDS011;65197;50.164;8.012;2023-05-15T11:40:46;23.35;;;16.42;;
76373;SDS011;65197;50.164;8.012;2023-05-15T11:45:55;19.23;;;14.10;;
76373;SDS011;65197;50.164;8.012;2023-05-15T11:48:29;15.82;;;12.60;;
76373;SDS011;65197;50.164;8.012;2023-05-15T11:50:56;20.40;;;14.30;;
76373;SDS011;65197;50.164;8.012;2023-05-15T11:53:21;19.77;;;14.40;;
76373;SDS011;65197;50.164;8.012;2023-05-15T11:55:50;21.42;;;15.38;;
76373;SDS011;65197;50.164;8.012;2023-05-15T11:58:17;19.55;;;14.93;;
76373;SDS011;65197;50.164;8.012;2023-05-15T12:00:45;19.83;;;14.15;;
76373;SDS011;65197;50.164;8.012;2023-05-15T12:03:15;19.35;;;14.07;;
76373;SDS011;65197;50.164;8.012;2023-05-15T12:05:43;17.00;;;13.43;;
76373;SDS011;65197;50.164;8.012;2023-05-15T12:08:09;17.10;;;12.93;;
76373;SDS011;65197;50.164;8.012;2023-05-15T12:10:44;16.55;;;12.27;;
76373;SDS011;65197;50.164;8.012;2023-05-15T12:13:10;15.32;;;11.77;;
76373;SDS011;65197;50.164;8.012;2023-05-15T12:15:37;17.50;;;13.18;;
76373;SDS011;65197;50.164;8.012;2023-05-15T12:18:04;16.58;;;12.73;;
76373;SDS011;65197;50.164;8.012;2023-05-15T12:20:32;15.80;;;12.75;;
76373;SDS011;65197;50.164;8.012;2023-05-15T12:22:59;19.75;;;14.32;;
76373;SDS011;65197;50.164;8.012;2023-05-15T12:25:26;18.67;;;15.02;;
76373;SDS011;65197;50.164;8.012;2023-05-15T12:27:52;19.50;;;13.45;;
76373;SDS011;65197;50.164;8.012;2023-05-15T12:30:17;21.77;;;14.82;;
76373;SDS011;65197;50.164;8.012;2023-05-15T12:32:43;15.15;;;12.32;;
76373;SDS011;65197;50.164;8.012;2023-05-15T12:35:09;15.43;;;10.48;;
76373;SDS011;65197;50.164;8.012;2023-05-15T12:37:36;16.02;;;11.48;;
76373;SDS011;65197;50.164;8.012;2023-05-15T12:40:03;14.35;;;11.30;;
76373;SDS011;65197;50.164;8.012;2023-05-15T12:42:37;13.90;;;11.23;;
76373;SDS011;65197;50.164;8.012;2023-05-15T12:45:16;17.08;;;11.98;;
76373;SDS011;65197;50.164;8.012;2023-05-15T12:47:43;16.02;;;11.30;;
76373;SDS011;65197;50.164;8.012;2023-05-15T12:55:17;18.30;;;13.00;;
76373;SDS011;65197;50.164;8.012;2023-05-15T12:57:47;17.58;;;12.73;;
76373;SDS011;65197;50.164;8.012;2023-05-15T13:00:13;21.45;;;15.63;;
76373;SDS011;65197;50.164;8.012;2023-05-15T13:02:41;20.20;;;14.65;;
76373;SDS011;65197;50.164;8.012;2023-05-15T13:05:08;21.08;;;15.35;;
76373;SDS011;65197;50.164;8.012;2023-05-15T13:07:34;23.70;;;15.82;;
76373;SDS011;65197;50.164;8.012;2023-05-15T13:10:05;22.77;;;15.25;;
76373;SDS011;65197;50.164;8.012;2023-05-15T13:12:38;20.85;;;15.02;;
76373;SDS011;65197;50.164;8.012;2023-05-15T13:17:32;16.33;;;11.73;;
76373;SDS011;65197;50.164;8.012;2023-05-15T13:20:04;19.92;;;13.23;;
76373;SDS011;65197;50.164;8.012;2023-05-15T13:22:30;21.48;;;15.20;;
76373;SDS011;65197;50.164;8.012;2023-05-15T13:24:56;20.42;;;14.88;;
76373;SDS011;65197;50.164;8.012;2023-05-15T13:27:22;23.38;;;16.77;;
76373;SDS011;65197;50.164;8.012;2023-05-15T13:29:47;23.40;;;15.88;;
76373;SDS011;65197;50.164;8.012;2023-05-15T13:32:13;24.17;;;15.90;;
76373;SDS011;65197;50.164;8.012;2023-05-15T13:34:38;23.88;;;15.52;;
76373;SDS011;65197;50.164;8.012;2023-05-15T13:37:03;21.23;;;15.02;;
76373;SDS011;65197;50.164;8.012;2023-05-15T13:39:29;20.15;;;13.48;;
76373;SDS011;65197;50.164;8.012;2023-05-15T13:41:54;20.70;;;14.77;;
76373;SDS011;65197;50.164;8.012;2023-05-15T13:44:20;20.83;;;14.23;;
76373;SDS011;65197;50.164;8.012;2023-05-15T13:46:45;19.67;;;12.80;;
76373;SDS011;65197;50.164;8.012;2023-05-15T13:49:10;20.25;;;13.80;;
76373;SDS011;65197;50.164;8.012;2023-05-15T13:51:36;18.05;;;13.02;;
76373;SDS011;65197;50.164;8.012;2023-05-15T13:54:01;19.27;;;12.90;;
76373;SDS011;65197;50.164;8.012;2023-05-15T13:56:27;25.00;;;14.10;;
76373;SDS011;65197;50.164;8.012;2023-05-15T13:58:52;20.90;;;12.52;;
76373;SDS011;65197;50.164;8.012;2023-05-15T14:01:17;17.40;;;12.68;;
76373;SDS011;65197;50.164;8.012;2023-05-15T14:03:43;16.02;;;12.13;;
76373;SDS011;65197;50.164;8.012;2023-05-15T14:06:09;17.48;;;12.40;;
76373;SDS011;65197;50.164;8.012;2023-05-15T14:08:34;17.38;;;12.00;;
76373;SDS011;65197;50.164;8.012;2023-05-15T14:11:00;15.25;;;12.02;;
76373;SDS011;65197;50.164;8.012;2023-05-15T14:13:25;18.38;;;11.82;;
76373;SDS011;65197;50.164;8.012;2023-05-15T14:15:51;14.43;;;10.50;;
76373;SDS011;65197;50.164;8.012;2023-05-15T14:18:16;15.35;;;11.82;;
76373;SDS011;65197;50.164;8.012;2023-05-15T14:20:41;14.52;;;10.70;;
76373;SDS011;65197;50.164;8.012;2023-05-15T14:23:07;13.85;;;10.45;;
76373;SDS011;65197;50.164;8.012;2023-05-15T14:25:32;15.05;;;10.93;;
76373;SDS011;65197;50.164;8.012;2023-05-15T14:27:58;19.02;;;11.02;;
76373;SDS011;65197;50.164;8.012;2023-05-15T14:30:23;18.63;;;11.20;;
76373;SDS011;65197;50.164;8.012;2023-05-15T14:32:48;16.65;;;10.85;;
76373;SDS011;65197;50.164;8.012;2023-05-15T14:35:14;13.30;;;10.75;;
76373;SDS011;65197;50.164;8.012;2023-05-15T14:37:39;13.38;;;10.85;;
76373;SDS011;65197;50.164;8.012;2023-05-15T14:40:05;15.15;;;10.40;;
76373;SDS011;65197;50.164;8.012;2023-05-15T14:42:32;13.55;;;10.13;;
76373;SDS011;65197;50.164;8.012;2023-05-15T14:44:57;13.63;;;10.60;;
76373;SDS011;65197;50.164;8.012;2023-05-15T14:47:22;12.75;;;10.02;;
76373;SDS011;65197;50.164;8.012;2023-05-15T14:49:49;14.80;;;10.10;;
76373;SDS011;65197;50.164;8.012;2023-05-15T14:52:14;13.05;;;9.27;;
76373;SDS011;65197;50.164;8.012;2023-05-15T14:54:40;14.57;;;10.02;;
76373;SDS011;65197;50.164;8.012;2023-05-15T14:57:05;12.07;;;9.43;;
76373;SDS011;65197;50.164;8.012;2023-05-15T14:59:31;15.02;;;9.85;;
76373;SDS011;65197;50.164;8.012;2023-05-15T15:01:57;14.95;;;10.18;;
76373;SDS011;65197;50.164;8.012;2023-05-15T15:04:22;12.55;;;9.95;;
76373;SDS011;65197;50.164;8.012;2023-05-15T15:06:48;15.18;;;10.07;;
76373;SDS011;65197;50.164;8.012;2023-05-15T15:09:13;14.43;;;9.85;;
76373;SDS011;65197;50.164;8.012;2023-05-15T15:11:39;9.75;;;8.15;;
76373;SDS011;65197;50.164;8.012;2023-05-15T15:14:04;9.73;;;8.75;;
76373;SDS011;65197;50.164;8.012;2023-05-15T15:16:30;9.80;;;8.23;;
76373;SDS011;65197;50.164;8.012;2023-05-15T15:18:55;12.02;;;8.73;;
76373;SDS011;65197;50.164;8.012;2023-05-15T15:21:20;11.18;;;8.52;;
76373;SDS011;65197;50.164;8.012;2023-05-15T15:23:46;13.98;;;8.65;;
76373;SDS011;65197;50.164;8.012;2023-05-15T15:26:12;15.55;;;9.15;;
76373;SDS011;65197;50.164;8.012;2023-05-15T15:28:38;12.20;;;9.00;;